• Join FlightAware (Why Join?)
  • Login
  • US Flag GB Flag 
08:13 EDT


 

Airport Tracker/Info


-or-


 

Live Flight TrackerFlight Track Log ✈ SKW5516 ✈ 14-Jun-2013 ✈ KFAT - KLAX

Flight Track Log - Related Links

Times and Time Zones

All times are in EDT time to prevent confusion due to time zone crossing. See the SKW5516 flight status page for this flight to view local times or setup timezone preferences in your user account.

Time Position Orientation Groundspeed Altitude Reporting Facility
EDT Latitude Longitude Course Direction KTS MPH feet Rate Location/Type
17:56 36.6001 -119.6342 159° South  Level Estimated
17:57 36.5414 -119.6061 159° South  Level Estimated
17:58 36.4826 -119.5781 159° South  Level Estimated
17:59 36.4238 -119.5501 159° South  Level Estimated
18:00 36.3650 -119.5221 159° South  Level Estimated
18:01 36.3062 -119.4942 159° South  Level Estimated
18:02 36.2474 -119.4664 159° South  Level Estimated
18:03 36.1886 -119.4386 159° South  Level Estimated
18:04 36.1298 -119.4108 159° South  Level Estimated
18:05 36.0709 -119.3830 159° South  Level Estimated
18:06 36.0121 -119.3553 159° South  Level Estimated
18:07 35.9533 -119.3277 159° South  Level Estimated
18:08 35.8944 -119.3001 159° South  Level Estimated
18:09 35.8356 -119.2725 159° South  Level Estimated
18:10 35.7767 -119.2450 159° South  Level Estimated
18:11 35.7178 -119.2175 159° South  Level Estimated
18:12 35.6590 -119.1900 159° South  Level Estimated
18:13 35.6001 -119.1626 159° South  Level Estimated
18:14 35.5412 -119.1352 159° South  Level Estimated
18:15 35.4823 -119.1079 159° South  Level Estimated
18:16 35.4234 -119.0806 159° South  Level Estimated
18:17 35.3645 -119.0534 159° South  Level Estimated
18:18 35.3056 -119.0262 159° South  Level Estimated
18:19 35.2467 -118.9990 159° South  Level Estimated
18:20 35.1878 -118.9719 159° South  Level Estimated
18:21 35.1288 -118.9448 159° South  Level Estimated
18:22 35.0699 -118.9177 159° South  Level Estimated
18:23 35.0110 -118.8907 159° South  Level Estimated
18:24 34.9520 -118.8637 159° South  Level Estimated
18:25 34.8931 -118.8368 159° South  Level Estimated
18:26 34.8341 -118.8099 159° South  Level Estimated
18:27 34.7752 -118.7831 159° South  Level Estimated
18:28 34.7162 -118.7562 160° South  Level Estimated
18:29 34.6572 -118.7294 160° South  Level Estimated
18:30 34.5983 -118.7027 160° South  Level Estimated
18:31 34.5393 -118.6760 160° South  Level Estimated
18:32 34.4803 -118.6493 160° South  Level Estimated
18:33 34.4213 -118.6227 160° South  Level Estimated
18:34 34.3623 -118.5961 160° South  Level Estimated
18:35 34.3033 -118.5696 160° South  Level Estimated
18:36 34.2443 -118.5430 160° South  Level Estimated
18:37 34.1852 -118.5166 160° South  Level Estimated
18:38 34.1262 -118.4901 160° South  Level Estimated
18:39 34.0672 -118.4637 160° South  Level Estimated
18:40 34.0081 -118.4373 160° South  Level Estimated
18:41 33.9491 -118.4110 160° South  Level Estimated
18:42 33.9425 -118.4081 160° South  Level Estimated
18:43 33.9425 -118.4081 164° South  Level Estimated
18:44 33.9425 -118.4081 164° South  Level Estimated
18:45 33.9425 -118.4081 164° South  Level Estimated